Terminal Aerodrome Forecast
Issued by NWS Wilmington, OH

Current Version | Previous Version | Graphics & Text | Print | Product List | Glossary On
Versions: 1 2 3 4 5 6 7 8 9 10 11 12 13 14 15 16 17 18 19 20 21 22 23 24 25 26 27 28
000
FTUS41 KILN 150800 AAA
TAFCVG
TAF AMD
KCVG 150859Z 1509/1612 15004KT P6SM OVC019
     FM151600 15009KT P6SM BKN023
     FM151800 15009KT P6SM SCT025 OVC250
     FM152300 14008KT P6SM -RA OVC025
     FM160300 16007KT P6SM VCSH OVC015=

USA.gov is the U.S. government's official web portal to all federal, state and local government web resources and services.